sensor_id;sensor_type;location;lat;lon;timestamp;P1;durP1;ratioP1;P2;durP2;ratioP2
7191;SDS011;3637;51.494;11.958;2024-03-22T00:01:43;12.17;;;8.53;;
7191;SDS011;3637;51.494;11.958;2024-03-22T00:04:44;11.13;;;7.80;;
7191;SDS011;3637;51.494;11.958;2024-03-22T00:07:47;13.50;;;8.73;;
7191;SDS011;3637;51.494;11.958;2024-03-22T00:10:48;13.57;;;8.57;;
7191;SDS011;3637;51.494;11.958;2024-03-22T00:13:50;13.47;;;8.53;;
7191;SDS011;3637;51.494;11.958;2024-03-22T00:16:51;12.67;;;8.60;;
7191;SDS011;3637;51.494;11.958;2024-03-22T00:19:52;13.37;;;8.33;;
7191;SDS011;3637;51.494;11.958;2024-03-22T00:22:55;15.57;;;9.20;;
7191;SDS011;3637;51.494;11.958;2024-03-22T00:25:56;14.37;;;9.00;;
7191;SDS011;3637;51.494;11.958;2024-03-22T00:28:57;12.00;;;8.73;;
7191;SDS011;3637;51.494;11.958;2024-03-22T00:31:59;13.67;;;10.10;;
7191;SDS011;3637;51.494;11.958;2024-03-22T00:35:01;12.73;;;9.10;;
7191;SDS011;3637;51.494;11.958;2024-03-22T00:38:03;14.27;;;9.17;;
7191;SDS011;3637;51.494;11.958;2024-03-22T00:41:05;14.10;;;8.93;;
7191;SDS011;3637;51.494;11.958;2024-03-22T00:44:06;16.00;;;9.40;;
7191;SDS011;3637;51.494;11.958;2024-03-22T00:47:08;13.40;;;9.00;;
7191;SDS011;3637;51.494;11.958;2024-03-22T00:50:10;14.00;;;9.40;;
7191;SDS011;3637;51.494;11.958;2024-03-22T00:53:12;16.40;;;10.33;;
7191;SDS011;3637;51.494;11.958;2024-03-22T00:56:14;13.63;;;9.80;;
7191;SDS011;3637;51.494;11.958;2024-03-22T00:59:14;14.67;;;10.17;;
7191;SDS011;3637;51.494;11.958;2024-03-22T01:02:16;17.10;;;10.27;;
7191;SDS011;3637;51.494;11.958;2024-03-22T01:05:17;15.20;;;9.83;;
7191;SDS011;3637;51.494;11.958;2024-03-22T01:08:20;13.93;;;9.33;;
7191;SDS011;3637;51.494;11.958;2024-03-22T01:11:21;16.97;;;10.30;;
7191;SDS011;3637;51.494;11.958;2024-03-22T01:14:23;16.23;;;9.97;;
7191;SDS011;3637;51.494;11.958;2024-03-22T01:17:23;15.13;;;10.13;;
7191;SDS011;3637;51.494;11.958;2024-03-22T01:20:26;15.67;;;9.73;;
7191;SDS011;3637;51.494;11.958;2024-03-22T01:23:29;17.30;;;9.90;;
7191;SDS011;3637;51.494;11.958;2024-03-22T01:26:29;15.27;;;9.93;;
7191;SDS011;3637;51.494;11.958;2024-03-22T01:29:31;13.60;;;8.97;;
7191;SDS011;3637;51.494;11.958;2024-03-22T01:32:32;14.30;;;9.17;;
7191;SDS011;3637;51.494;11.958;2024-03-22T01:35:34;14.53;;;9.07;;
7191;SDS011;3637;51.494;11.958;2024-03-22T01:38:36;13.63;;;8.80;;
7191;SDS011;3637;51.494;11.958;2024-03-22T01:41:37;14.27;;;9.10;;
7191;SDS011;3637;51.494;11.958;2024-03-22T01:44:38;14.00;;;8.50;;
7191;SDS011;3637;51.494;11.958;2024-03-22T01:47:40;14.40;;;8.67;;
7191;SDS011;3637;51.494;11.958;2024-03-22T01:50:41;13.87;;;8.70;;
7191;SDS011;3637;51.494;11.958;2024-03-22T01:53:44;16.07;;;9.63;;
7191;SDS011;3637;51.494;11.958;2024-03-22T01:56:45;14.80;;;9.27;;
7191;SDS011;3637;51.494;11.958;2024-03-22T01:59:47;12.53;;;8.13;;
7191;SDS011;3637;51.494;11.958;2024-03-22T02:02:49;13.43;;;8.17;;
7191;SDS011;3637;51.494;11.958;2024-03-22T02:05:51;12.20;;;8.43;;
7191;SDS011;3637;51.494;11.958;2024-03-22T02:08:54;11.93;;;8.30;;
7191;SDS011;3637;51.494;11.958;2024-03-22T02:11:56;11.50;;;7.57;;
7191;SDS011;3637;51.494;11.958;2024-03-22T02:14:57;12.50;;;8.20;;
7191;SDS011;3637;51.494;11.958;2024-03-22T02:17:59;13.40;;;7.80;;
7191;SDS011;3637;51.494;11.958;2024-03-22T02:21:00;13.27;;;7.57;;
7191;SDS011;3637;51.494;11.958;2024-03-22T02:24:03;10.50;;;7.97;;
7191;SDS011;3637;51.494;11.958;2024-03-22T02:27:05;10.30;;;7.23;;
7191;SDS011;3637;51.494;11.958;2024-03-22T02:30:07;11.70;;;7.97;;
7191;SDS011;3637;51.494;11.958;2024-03-22T02:33:09;13.60;;;7.93;;
7191;SDS011;3637;51.494;11.958;2024-03-22T02:36:10;11.83;;;8.13;;
7191;SDS011;3637;51.494;11.958;2024-03-22T02:39:13;10.70;;;7.50;;
7191;SDS011;3637;51.494;11.958;2024-03-22T02:42:15;10.57;;;8.00;;
7191;SDS011;3637;51.494;11.958;2024-03-22T02:45:16;10.63;;;7.70;;
7191;SDS011;3637;51.494;11.958;2024-03-22T02:48:17;11.17;;;7.43;;
7191;SDS011;3637;51.494;11.958;2024-03-22T02:51:19;10.20;;;7.57;;
7191;SDS011;3637;51.494;11.958;2024-03-22T02:54:21;12.27;;;8.10;;
7191;SDS011;3637;51.494;11.958;2024-03-22T02:57:23;11.20;;;7.03;;
7191;SDS011;3637;51.494;11.958;2024-03-22T03:00:24;12.30;;;8.07;;
7191;SDS011;3637;51.494;11.958;2024-03-22T03:03:25;10.50;;;8.00;;
7191;SDS011;3637;51.494;11.958;2024-03-22T03:06:26;11.63;;;7.57;;
7191;SDS011;3637;51.494;11.958;2024-03-22T03:09:29;11.63;;;8.03;;
7191;SDS011;3637;51.494;11.958;2024-03-22T03:12:30;11.43;;;7.80;;
7191;SDS011;3637;51.494;11.958;2024-03-22T03:15:32;10.93;;;7.90;;
7191;SDS011;3637;51.494;11.958;2024-03-22T03:18:32;11.60;;;8.17;;
7191;SDS011;3637;51.494;11.958;2024-03-22T03:21:34;10.67;;;7.73;;
7191;SDS011;3637;51.494;11.958;2024-03-22T03:24:36;11.67;;;7.87;;
7191;SDS011;3637;51.494;11.958;2024-03-22T03:27:38;12.17;;;7.67;;
7191;SDS011;3637;51.494;11.958;2024-03-22T03:30:39;12.43;;;7.80;;
7191;SDS011;3637;51.494;11.958;2024-03-22T03:33:41;10.50;;;7.70;;
7191;SDS011;3637;51.494;11.958;2024-03-22T03:36:42;8.63;;;7.13;;
7191;SDS011;3637;51.494;11.958;2024-03-22T03:39:46;11.80;;;8.10;;
7191;SDS011;3637;51.494;11.958;2024-03-22T03:42:46;10.97;;;7.53;;
7191;SDS011;3637;51.494;11.958;2024-03-22T03:45:48;11.17;;;8.10;;
7191;SDS011;3637;51.494;11.958;2024-03-22T03:48:49;11.40;;;7.97;;
7191;SDS011;3637;51.494;11.958;2024-03-22T03:51:51;10.77;;;7.80;;
7191;SDS011;3637;51.494;11.958;2024-03-22T03:54:54;10.87;;;7.57;;
7191;SDS011;3637;51.494;11.958;2024-03-22T03:57:55;11.37;;;8.27;;
7191;SDS011;3637;51.494;11.958;2024-03-22T04:00:56;12.03;;;8.17;;
7191;SDS011;3637;51.494;11.958;2024-03-22T04:03:57;10.83;;;8.23;;
7191;SDS011;3637;51.494;11.958;2024-03-22T04:06:59;12.03;;;8.10;;
7191;SDS011;3637;51.494;11.958;2024-03-22T04:10:01;10.83;;;8.47;;
7191;SDS011;3637;51.494;11.958;2024-03-22T04:13:03;10.93;;;7.73;;
7191;SDS011;3637;51.494;11.958;2024-03-22T04:16:05;14.07;;;8.23;;
7191;SDS011;3637;51.494;11.958;2024-03-22T04:19:06;10.63;;;8.10;;
7191;SDS011;3637;51.494;11.958;2024-03-22T04:22:07;12.10;;;9.10;;
7191;SDS011;3637;51.494;11.958;2024-03-22T04:25:11;9.77;;;7.90;;
7191;SDS011;3637;51.494;11.958;2024-03-22T04:28:12;12.60;;;8.17;;
7191;SDS011;3637;51.494;11.958;2024-03-22T04:31:14;11.17;;;8.13;;
7191;SDS011;3637;51.494;11.958;2024-03-22T04:34:16;11.27;;;7.83;;
7191;SDS011;3637;51.494;11.958;2024-03-22T04:37:18;11.43;;;7.97;;
7191;SDS011;3637;51.494;11.958;2024-03-22T04:40:21;12.10;;;8.10;;
7191;SDS011;3637;51.494;11.958;2024-03-22T04:43:23;12.03;;;8.67;;
7191;SDS011;3637;51.494;11.958;2024-03-22T04:46:25;11.07;;;8.20;;
7191;SDS011;3637;51.494;11.958;2024-03-22T04:49:27;12.63;;;8.03;;
7191;SDS011;3637;51.494;11.958;2024-03-22T04:52:27;13.73;;;9.00;;
7191;SDS011;3637;51.494;11.958;2024-03-22T04:55:30;12.50;;;8.73;;
7191;SDS011;3637;51.494;11.958;2024-03-22T04:58:32;16.17;;;8.63;;
7191;SDS011;3637;51.494;11.958;2024-03-22T05:01:34;11.23;;;8.53;;
7191;SDS011;3637;51.494;11.958;2024-03-22T05:04:35;10.93;;;8.60;;
7191;SDS011;3637;51.494;11.958;2024-03-22T05:07:37;12.63;;;9.23;;
7191;SDS011;3637;51.494;11.958;2024-03-22T05:10:39;13.33;;;9.60;;
7191;SDS011;3637;51.494;11.958;2024-03-22T05:13:42;12.67;;;8.40;;
7191;SDS011;3637;51.494;11.958;2024-03-22T05:16:43;12.63;;;8.47;;
7191;SDS011;3637;51.494;11.958;2024-03-22T05:19:44;11.50;;;8.57;;
7191;SDS011;3637;51.494;11.958;2024-03-22T05:22:47;12.10;;;9.07;;
7191;SDS011;3637;51.494;11.958;2024-03-22T05:25:50;14.00;;;8.60;;
7191;SDS011;3637;51.494;11.958;2024-03-22T05:28:52;11.83;;;8.20;;
7191;SDS011;3637;51.494;11.958;2024-03-22T05:31:52;11.20;;;8.33;;
7191;SDS011;3637;51.494;11.958;2024-03-22T05:34:54;12.37;;;8.90;;
7191;SDS011;3637;51.494;11.958;2024-03-22T05:37:55;12.17;;;8.87;;
7191;SDS011;3637;51.494;11.958;2024-03-22T05:40:58;14.33;;;9.03;;
7191;SDS011;3637;51.494;11.958;2024-03-22T05:44:03;10.67;;;7.90;;
7191;SDS011;3637;51.494;11.958;2024-03-22T05:47:05;14.27;;;9.27;;
7191;SDS011;3637;51.494;11.958;2024-03-22T05:50:06;13.20;;;8.83;;
7191;SDS011;3637;51.494;11.958;2024-03-22T05:53:09;14.60;;;9.40;;
7191;SDS011;3637;51.494;11.958;2024-03-22T05:56:12;13.27;;;9.40;;
7191;SDS011;3637;51.494;11.958;2024-03-22T05:59:13;13.87;;;9.27;;
7191;SDS011;3637;51.494;11.958;2024-03-22T06:02:15;13.33;;;8.70;;
7191;SDS011;3637;51.494;11.958;2024-03-22T06:05:16;14.30;;;9.10;;
7191;SDS011;3637;51.494;11.958;2024-03-22T06:08:18;13.97;;;8.90;;
7191;SDS011;3637;51.494;11.958;2024-03-22T06:11:21;15.23;;;10.43;;
7191;SDS011;3637;51.494;11.958;2024-03-22T06:14:23;12.70;;;9.20;;
7191;SDS011;3637;51.494;11.958;2024-03-22T06:17:24;12.40;;;9.63;;
7191;SDS011;3637;51.494;11.958;2024-03-22T06:20:26;13.27;;;9.27;;
7191;SDS011;3637;51.494;11.958;2024-03-22T06:23:27;14.80;;;9.33;;
7191;SDS011;3637;51.494;11.958;2024-03-22T06:26:31;13.90;;;9.27;;
7191;SDS011;3637;51.494;11.958;2024-03-22T06:29:33;13.87;;;9.10;;
7191;SDS011;3637;51.494;11.958;2024-03-22T06:32:34;14.13;;;9.23;;
7191;SDS011;3637;51.494;11.958;2024-03-22T06:35:36;16.40;;;10.20;;
7191;SDS011;3637;51.494;11.958;2024-03-22T06:38:37;15.33;;;9.90;;
7191;SDS011;3637;51.494;11.958;2024-03-22T06:41:40;17.53;;;10.57;;
7191;SDS011;3637;51.494;11.958;2024-03-22T06:44:42;16.40;;;10.70;;
7191;SDS011;3637;51.494;11.958;2024-03-22T06:47:43;17.43;;;10.70;;
7191;SDS011;3637;51.494;11.958;2024-03-22T06:50:44;16.73;;;10.87;;
7191;SDS011;3637;51.494;11.958;2024-03-22T06:53:45;16.90;;;11.17;;
7191;SDS011;3637;51.494;11.958;2024-03-22T06:56:49;17.90;;;12.50;;
7191;SDS011;3637;51.494;11.958;2024-03-22T06:59:49;20.07;;;12.67;;
7191;SDS011;3637;51.494;11.958;2024-03-22T07:02:51;21.47;;;13.53;;
7191;SDS011;3637;51.494;11.958;2024-03-22T07:05:52;23.23;;;14.07;;
7191;SDS011;3637;51.494;11.958;2024-03-22T07:08:54;20.40;;;13.97;;
7191;SDS011;3637;51.494;11.958;2024-03-22T07:11:57;22.00;;;13.83;;
7191;SDS011;3637;51.494;11.958;2024-03-22T07:14:58;24.07;;;14.53;;
7191;SDS011;3637;51.494;11.958;2024-03-22T07:18:00;20.13;;;14.07;;
7191;SDS011;3637;51.494;11.958;2024-03-22T07:21:03;21.73;;;14.13;;
7191;SDS011;3637;51.494;11.958;2024-03-22T07:24:04;25.57;;;16.30;;
7191;SDS011;3637;51.494;11.958;2024-03-22T07:27:07;23.67;;;15.33;;
7191;SDS011;3637;51.494;11.958;2024-03-22T07:30:08;22.77;;;15.40;;
7191;SDS011;3637;51.494;11.958;2024-03-22T07:33:11;22.97;;;15.07;;
7191;SDS011;3637;51.494;11.958;2024-03-22T07:36:16;25.20;;;15.53;;
7191;SDS011;3637;51.494;11.958;2024-03-22T07:39:17;24.30;;;15.00;;
7191;SDS011;3637;51.494;11.958;2024-03-22T07:42:21;27.57;;;15.57;;
7191;SDS011;3637;51.494;11.958;2024-03-22T07:45:22;25.70;;;15.13;;
7191;SDS011;3637;51.494;11.958;2024-03-22T07:48:24;26.73;;;15.93;;
7191;SDS011;3637;51.494;11.958;2024-03-22T07:51:25;23.97;;;15.10;;
7191;SDS011;3637;51.494;11.958;2024-03-22T07:54:26;24.90;;;15.33;;
7191;SDS011;3637;51.494;11.958;2024-03-22T07:57:28;24.53;;;15.50;;
7191;SDS011;3637;51.494;11.958;2024-03-22T08:00:31;25.07;;;16.10;;
7191;SDS011;3637;51.494;11.958;2024-03-22T08:03:33;26.00;;;17.20;;
7191;SDS011;3637;51.494;11.958;2024-03-22T08:06:35;24.30;;;15.33;;
7191;SDS011;3637;51.494;11.958;2024-03-22T08:09:35;23.67;;;15.10;;
7191;SDS011;3637;51.494;11.958;2024-03-22T08:12:38;24.07;;;15.07;;
7191;SDS011;3637;51.494;11.958;2024-03-22T08:15:39;28.23;;;16.53;;
7191;SDS011;3637;51.494;11.958;2024-03-22T08:18:43;27.27;;;15.93;;
7191;SDS011;3637;51.494;11.958;2024-03-22T08:21:45;26.27;;;16.30;;
7191;SDS011;3637;51.494;11.958;2024-03-22T08:24:46;28.70;;;17.60;;
7191;SDS011;3637;51.494;11.958;2024-03-22T08:27:49;27.20;;;16.53;;
7191;SDS011;3637;51.494;11.958;2024-03-22T08:30:50;25.43;;;16.13;;
7191;SDS011;3637;51.494;11.958;2024-03-22T08:33:51;26.70;;;17.10;;
7191;SDS011;3637;51.494;11.958;2024-03-22T08:36:52;27.27;;;17.07;;
7191;SDS011;3637;51.494;11.958;2024-03-22T08:39:54;24.93;;;15.87;;
7191;SDS011;3637;51.494;11.958;2024-03-22T08:42:56;26.97;;;15.60;;
7191;SDS011;3637;51.494;11.958;2024-03-22T08:45:58;28.40;;;16.80;;
7191;SDS011;3637;51.494;11.958;2024-03-22T08:48:58;25.13;;;16.07;;
7191;SDS011;3637;51.494;11.958;2024-03-22T08:52:00;27.13;;;16.63;;
7191;SDS011;3637;51.494;11.958;2024-03-22T08:55:02;25.30;;;15.77;;
7191;SDS011;3637;51.494;11.958;2024-03-22T08:58:06;24.97;;;15.97;;
7191;SDS011;3637;51.494;11.958;2024-03-22T09:01:07;24.07;;;14.80;;
7191;SDS011;3637;51.494;11.958;2024-03-22T09:04:10;24.37;;;14.73;;
7191;SDS011;3637;51.494;11.958;2024-03-22T09:07:10;22.87;;;14.77;;
7191;SDS011;3637;51.494;11.958;2024-03-22T09:10:12;23.67;;;14.97;;
7191;SDS011;3637;51.494;11.958;2024-03-22T09:13:14;26.37;;;15.40;;
7191;SDS011;3637;51.494;11.958;2024-03-22T09:16:16;23.30;;;14.47;;
7191;SDS011;3637;51.494;11.958;2024-03-22T09:19:18;21.77;;;14.23;;
7191;SDS011;3637;51.494;11.958;2024-03-22T09:22:20;22.77;;;14.50;;
7191;SDS011;3637;51.494;11.958;2024-03-22T09:25:22;24.70;;;14.37;;
7191;SDS011;3637;51.494;11.958;2024-03-22T09:28:25;22.33;;;14.27;;
7191;SDS011;3637;51.494;11.958;2024-03-22T09:31:27;21.63;;;13.57;;
7191;SDS011;3637;51.494;11.958;2024-03-22T09:34:28;20.67;;;13.53;;
7191;SDS011;3637;51.494;11.958;2024-03-22T09:37:30;21.43;;;13.90;;
7191;SDS011;3637;51.494;11.958;2024-03-22T09:40:31;21.67;;;13.93;;
7191;SDS011;3637;51.494;11.958;2024-03-22T09:43:34;19.23;;;13.50;;
7191;SDS011;3637;51.494;11.958;2024-03-22T09:46:36;20.93;;;14.87;;
7191;SDS011;3637;51.494;11.958;2024-03-22T09:49:38;19.93;;;13.57;;
7191;SDS011;3637;51.494;11.958;2024-03-22T09:52:40;18.97;;;13.03;;
7191;SDS011;3637;51.494;11.958;2024-03-22T09:55:42;19.50;;;12.80;;
7191;SDS011;3637;51.494;11.958;2024-03-22T09:58:46;18.60;;;12.73;;
7191;SDS011;3637;51.494;11.958;2024-03-22T10:01:46;18.77;;;11.53;;
7191;SDS011;3637;51.494;11.958;2024-03-22T10:04:50;17.83;;;11.73;;
7191;SDS011;3637;51.494;11.958;2024-03-22T10:07:52;20.20;;;11.17;;
7191;SDS011;3637;51.494;11.958;2024-03-22T10:10:54;15.90;;;10.67;;
7191;SDS011;3637;51.494;11.958;2024-03-22T10:13:57;17.23;;;11.03;;
7191;SDS011;3637;51.494;11.958;2024-03-22T10:16:59;16.70;;;10.37;;
7191;SDS011;3637;51.494;11.958;2024-03-22T10:20:01;16.03;;;10.17;;
7191;SDS011;3637;51.494;11.958;2024-03-22T10:23:02;15.33;;;9.83;;
7191;SDS011;3637;51.494;11.958;2024-03-22T10:26:04;14.33;;;10.47;;
7191;SDS011;3637;51.494;11.958;2024-03-22T10:29:06;15.80;;;9.90;;
7191;SDS011;3637;51.494;11.958;2024-03-22T10:32:09;16.73;;;9.17;;
7191;SDS011;3637;51.494;11.958;2024-03-22T10:35:11;14.37;;;9.73;;
7191;SDS011;3637;51.494;11.958;2024-03-22T10:38:15;18.83;;;10.37;;
7191;SDS011;3637;51.494;11.958;2024-03-22T10:41:19;15.93;;;9.83;;
7191;SDS011;3637;51.494;11.958;2024-03-22T10:44:21;14.23;;;9.70;;
7191;SDS011;3637;51.494;11.958;2024-03-22T10:47:24;15.80;;;10.20;;
7191;SDS011;3637;51.494;11.958;2024-03-22T10:50:29;17.00;;;10.60;;
7191;SDS011;3637;51.494;11.958;2024-03-22T10:53:33;14.40;;;10.37;;
7191;SDS011;3637;51.494;11.958;2024-03-22T10:56:35;17.23;;;10.13;;
7191;SDS011;3637;51.494;11.958;2024-03-22T10:59:40;16.57;;;9.97;;
7191;SDS011;3637;51.494;11.958;2024-03-22T11:02:42;17.17;;;10.27;;
7191;SDS011;3637;51.494;11.958;2024-03-22T11:05:45;18.80;;;11.27;;
7191;SDS011;3637;51.494;11.958;2024-03-22T11:08:49;18.50;;;11.90;;
7191;SDS011;3637;51.494;11.958;2024-03-22T11:11:52;15.50;;;11.63;;
7191;SDS011;3637;51.494;11.958;2024-03-22T11:14:55;15.90;;;11.30;;
7191;SDS011;3637;51.494;11.958;2024-03-22T11:17:57;16.50;;;11.37;;
7191;SDS011;3637;51.494;11.958;2024-03-22T11:20:59;18.33;;;11.57;;
7191;SDS011;3637;51.494;11.958;2024-03-22T11:24:02;16.37;;;11.67;;
7191;SDS011;3637;51.494;11.958;2024-03-22T11:27:03;17.30;;;10.73;;
7191;SDS011;3637;51.494;11.958;2024-03-22T11:30:07;17.07;;;11.63;;
7191;SDS011;3637;51.494;11.958;2024-03-22T11:33:08;17.83;;;11.83;;
7191;SDS011;3637;51.494;11.958;2024-03-22T11:36:11;16.20;;;10.87;;
7191;SDS011;3637;51.494;11.958;2024-03-22T11:39:12;17.87;;;11.57;;
7191;SDS011;3637;51.494;11.958;2024-03-22T11:42:14;18.90;;;12.13;;
7191;SDS011;3637;51.494;11.958;2024-03-22T11:45:18;17.10;;;11.60;;
7191;SDS011;3637;51.494;11.958;2024-03-22T11:48:21;18.50;;;12.47;;
7191;SDS011;3637;51.494;11.958;2024-03-22T11:51:23;18.37;;;12.40;;
7191;SDS011;3637;51.494;11.958;2024-03-22T11:54:24;19.83;;;13.17;;
7191;SDS011;3637;51.494;11.958;2024-03-22T11:57:25;17.40;;;11.00;;
7191;SDS011;3637;51.494;11.958;2024-03-22T12:00:28;16.10;;;11.30;;
7191;SDS011;3637;51.494;11.958;2024-03-22T12:03:29;18.57;;;11.73;;
7191;SDS011;3637;51.494;11.958;2024-03-22T12:06:30;16.40;;;11.43;;
7191;SDS011;3637;51.494;11.958;2024-03-22T12:09:32;17.70;;;11.00;;
7191;SDS011;3637;51.494;11.958;2024-03-22T12:12:33;18.13;;;12.20;;
7191;SDS011;3637;51.494;11.958;2024-03-22T12:15:38;18.40;;;11.50;;
7191;SDS011;3637;51.494;11.958;2024-03-22T12:18:38;16.63;;;11.77;;
7191;SDS011;3637;51.494;11.958;2024-03-22T12:21:40;15.37;;;12.00;;
7191;SDS011;3637;51.494;11.958;2024-03-22T12:24:41;18.03;;;11.33;;
7191;SDS011;3637;51.494;11.958;2024-03-22T12:27:43;19.53;;;12.07;;
7191;SDS011;3637;51.494;11.958;2024-03-22T12:30:46;16.30;;;12.23;;
7191;SDS011;3637;51.494;11.958;2024-03-22T12:33:48;17.47;;;11.73;;
7191;SDS011;3637;51.494;11.958;2024-03-22T12:36:50;18.90;;;12.07;;
7191;SDS011;3637;51.494;11.958;2024-03-22T12:39:51;17.17;;;11.93;;
7191;SDS011;3637;51.494;11.958;2024-03-22T12:42:53;18.53;;;12.40;;
7191;SDS011;3637;51.494;11.958;2024-03-22T12:45:55;16.70;;;11.67;;
7191;SDS011;3637;51.494;11.958;2024-03-22T12:48:57;18.57;;;12.30;;
7191;SDS011;3637;51.494;11.958;2024-03-22T12:51:57;15.97;;;12.07;;
7191;SDS011;3637;51.494;11.958;2024-03-22T12:54:59;18.37;;;12.50;;
7191;SDS011;3637;51.494;11.958;2024-03-22T12:58:00;18.33;;;12.60;;
7191;SDS011;3637;51.494;11.958;2024-03-22T13:01:04;20.73;;;13.07;;
7191;SDS011;3637;51.494;11.958;2024-03-22T13:04:05;18.87;;;13.47;;
7191;SDS011;3637;51.494;11.958;2024-03-22T13:07:07;20.17;;;12.97;;
7191;SDS011;3637;51.494;11.958;2024-03-22T13:10:08;18.63;;;13.53;;
7191;SDS011;3637;51.494;11.958;2024-03-22T13:13:10;19.40;;;13.53;;
7191;SDS011;3637;51.494;11.958;2024-03-22T13:16:12;19.93;;;13.03;;
7191;SDS011;3637;51.494;11.958;2024-03-22T13:19:16;17.87;;;13.17;;
7191;SDS011;3637;51.494;11.958;2024-03-22T13:22:18;20.87;;;12.90;;
7191;SDS011;3637;51.494;11.958;2024-03-22T13:25:20;19.77;;;12.87;;
7191;SDS011;3637;51.494;11.958;2024-03-22T13:28:21;19.63;;;12.97;;
7191;SDS011;3637;51.494;11.958;2024-03-22T13:31:24;20.07;;;12.17;;
7191;SDS011;3637;51.494;11.958;2024-03-22T13:34:26;17.73;;;12.40;;
7191;SDS011;3637;51.494;11.958;2024-03-22T13:37:26;15.93;;;12.00;;
7191;SDS011;3637;51.494;11.958;2024-03-22T13:40:28;14.87;;;10.73;;
7191;SDS011;3637;51.494;11.958;2024-03-22T13:43:29;15.97;;;11.40;;
7191;SDS011;3637;51.494;11.958;2024-03-22T13:46:32;15.97;;;11.50;;
7191;SDS011;3637;51.494;11.958;2024-03-22T13:49:36;15.70;;;11.30;;
7191;SDS011;3637;51.494;11.958;2024-03-22T13:52:41;18.37;;;11.97;;
7191;SDS011;3637;51.494;11.958;2024-03-22T13:55:42;16.33;;;12.47;;
7191;SDS011;3637;51.494;11.958;2024-03-22T13:58:44;18.10;;;11.97;;
7191;SDS011;3637;51.494;11.958;2024-03-22T14:01:47;17.00;;;12.23;;
7191;SDS011;3637;51.494;11.958;2024-03-22T14:04:49;14.83;;;11.50;;
7191;SDS011;3637;51.494;11.958;2024-03-22T14:07:52;16.37;;;11.63;;
7191;SDS011;3637;51.494;11.958;2024-03-22T14:10:53;18.13;;;12.20;;
7191;SDS011;3637;51.494;11.958;2024-03-22T14:13:54;19.83;;;11.80;;
7191;SDS011;3637;51.494;11.958;2024-03-22T14:16:56;16.63;;;11.57;;
7191;SDS011;3637;51.494;11.958;2024-03-22T14:19:58;16.03;;;11.40;;
7191;SDS011;3637;51.494;11.958;2024-03-22T14:22:59;16.37;;;11.90;;
7191;SDS011;3637;51.494;11.958;2024-03-22T14:26:01;15.60;;;11.23;;
7191;SDS011;3637;51.494;11.958;2024-03-22T14:29:02;17.90;;;12.27;;
7191;SDS011;3637;51.494;11.958;2024-03-22T14:32:05;17.80;;;12.37;;
7191;SDS011;3637;51.494;11.958;2024-03-22T14:35:07;16.00;;;11.53;;
7191;SDS011;3637;51.494;11.958;2024-03-22T14:38:10;16.87;;;11.57;;
7191;SDS011;3637;51.494;11.958;2024-03-22T14:41:11;14.20;;;10.47;;
7191;SDS011;3637;51.494;11.958;2024-03-22T14:44:12;13.73;;;10.53;;
7191;SDS011;3637;51.494;11.958;2024-03-22T14:47:15;17.33;;;10.70;;
7191;SDS011;3637;51.494;11.958;2024-03-22T14:50:18;14.13;;;10.77;;
7191;SDS011;3637;51.494;11.958;2024-03-22T14:53:22;13.67;;;10.67;;
7191;SDS011;3637;51.494;11.958;2024-03-22T14:56:25;16.23;;;11.67;;
7191;SDS011;3637;51.494;11.958;2024-03-22T14:59:27;16.17;;;11.07;;
7191;SDS011;3637;51.494;11.958;2024-03-22T15:02:29;16.90;;;11.57;;
7191;SDS011;3637;51.494;11.958;2024-03-22T15:05:31;14.97;;;10.50;;
7191;SDS011;3637;51.494;11.958;2024-03-22T15:08:32;15.13;;;11.30;;
7191;SDS011;3637;51.494;11.958;2024-03-22T15:11:34;16.47;;;11.30;;
7191;SDS011;3637;51.494;11.958;2024-03-22T15:14:35;17.77;;;10.97;;
7191;SDS011;3637;51.494;11.958;2024-03-22T15:17:38;14.40;;;11.03;;
7191;SDS011;3637;51.494;11.958;2024-03-22T15:20:39;14.77;;;11.20;;
7191;SDS011;3637;51.494;11.958;2024-03-22T15:23:41;14.67;;;10.80;;
7191;SDS011;3637;51.494;11.958;2024-03-22T15:26:43;17.63;;;11.23;;
7191;SDS011;3637;51.494;11.958;2024-03-22T15:29:44;15.43;;;11.17;;
7191;SDS011;3637;51.494;11.958;2024-03-22T15:32:47;15.63;;;11.37;;
7191;SDS011;3637;51.494;11.958;2024-03-22T15:35:48;15.10;;;10.87;;
7191;SDS011;3637;51.494;11.958;2024-03-22T15:38:50;14.57;;;11.33;;
7191;SDS011;3637;51.494;11.958;2024-03-22T15:41:52;14.93;;;11.57;;
7191;SDS011;3637;51.494;11.958;2024-03-22T15:44:52;14.67;;;10.50;;
7191;SDS011;3637;51.494;11.958;2024-03-22T15:47:56;17.53;;;11.40;;
7191;SDS011;3637;51.494;11.958;2024-03-22T15:50:56;15.80;;;11.20;;
7191;SDS011;3637;51.494;11.958;2024-03-22T15:53:58;18.10;;;11.33;;
7191;SDS011;3637;51.494;11.958;2024-03-22T15:57:00;16.40;;;11.90;;
7191;SDS011;3637;51.494;11.958;2024-03-22T16:00:02;17.87;;;12.50;;
7191;SDS011;3637;51.494;11.958;2024-03-22T16:03:06;18.40;;;11.80;;
7191;SDS011;3637;51.494;11.958;2024-03-22T16:06:07;15.17;;;11.30;;
7191;SDS011;3637;51.494;11.958;2024-03-22T16:09:09;16.47;;;12.10;;
7191;SDS011;3637;51.494;11.958;2024-03-22T16:12:10;15.07;;;10.97;;
7191;SDS011;3637;51.494;11.958;2024-03-22T16:15:38;16.70;;;11.83;;
7191;SDS011;3637;51.494;11.958;2024-03-22T16:19:19;15.80;;;11.70;;
7191;SDS011;3637;51.494;11.958;2024-03-22T16:22:59;16.53;;;12.03;;
7191;SDS011;3637;51.494;11.958;2024-03-22T16:26:22;17.77;;;12.50;;
7191;SDS011;3637;51.494;11.958;2024-03-22T16:29:35;17.20;;;13.03;;
7191;SDS011;3637;51.494;11.958;2024-03-22T16:32:44;17.97;;;13.27;;
7191;SDS011;3637;51.494;11.958;2024-03-22T16:35:47;21.17;;;12.27;;
7191;SDS011;3637;51.494;11.958;2024-03-22T16:38:49;17.37;;;12.13;;
7191;SDS011;3637;51.494;11.958;2024-03-22T16:41:50;16.67;;;12.27;;
7191;SDS011;3637;51.494;11.958;2024-03-22T16:45:11;18.10;;;12.77;;
7191;SDS011;3637;51.494;11.958;2024-03-22T16:48:22;19.93;;;13.63;;
7191;SDS011;3637;51.494;11.958;2024-03-22T16:51:25;17.17;;;13.43;;
7191;SDS011;3637;51.494;11.958;2024-03-22T16:54:27;16.27;;;12.23;;
7191;SDS011;3637;51.494;11.958;2024-03-22T16:57:28;19.97;;;13.47;;
7191;SDS011;3637;51.494;11.958;2024-03-22T17:00:30;19.57;;;13.43;;
7191;SDS011;3637;51.494;11.958;2024-03-22T17:03:31;19.23;;;14.33;;
7191;SDS011;3637;51.494;11.958;2024-03-22T17:06:36;22.33;;;14.27;;
7191;SDS011;3637;51.494;11.958;2024-03-22T17:09:37;19.33;;;13.97;;
7191;SDS011;3637;51.494;11.958;2024-03-22T17:12:39;21.90;;;13.87;;
7191;SDS011;3637;51.494;11.958;2024-03-22T17:15:40;22.30;;;13.50;;
7191;SDS011;3637;51.494;11.958;2024-03-22T17:18:42;20.90;;;14.27;;
7191;SDS011;3637;51.494;11.958;2024-03-22T17:21:45;21.00;;;14.47;;
7191;SDS011;3637;51.494;11.958;2024-03-22T17:24:46;18.57;;;13.57;;
7191;SDS011;3637;51.494;11.958;2024-03-22T17:27:48;17.57;;;13.70;;
7191;SDS011;3637;51.494;11.958;2024-03-22T17:30:49;20.17;;;14.13;;
7191;SDS011;3637;51.494;11.958;2024-03-22T17:33:50;18.50;;;13.03;;
7191;SDS011;3637;51.494;11.958;2024-03-22T17:36:53;19.60;;;14.73;;
7191;SDS011;3637;51.494;11.958;2024-03-22T17:39:55;28.27;;;16.83;;
7191;SDS011;3637;51.494;11.958;2024-03-22T17:42:55;26.37;;;17.00;;
7191;SDS011;3637;51.494;11.958;2024-03-22T17:45:57;25.70;;;16.20;;
7191;SDS011;3637;51.494;11.958;2024-03-22T17:48:58;21.10;;;15.57;;
7191;SDS011;3637;51.494;11.958;2024-03-22T17:52:01;21.00;;;14.93;;
7191;SDS011;3637;51.494;11.958;2024-03-22T17:55:02;23.83;;;16.50;;
7191;SDS011;3637;51.494;11.958;2024-03-22T17:58:05;21.90;;;15.47;;
7191;SDS011;3637;51.494;11.958;2024-03-22T18:01:06;23.83;;;15.20;;
7191;SDS011;3637;51.494;11.958;2024-03-22T18:04:07;21.97;;;15.30;;
7191;SDS011;3637;51.494;11.958;2024-03-22T18:07:10;20.93;;;15.80;;